Time;durP1;ratioP1;P1;durP2;ratioP2;P2;SDS_P1;SDS_P2;PMS_P1;PMS_P2;Temp;Humidity;BMP_temperature;BMP_pressure;BME280_temperature;BME280_humidity;BME280_pressure;Samples;Min_cycle;Max_cycle;Signal;HPM_P1;HPM_P2
2022/11/09 00:01:33;;;;;;;5.83;2.70;;;;;;;7.59;100.00;96429.34;5054589;28;20293;-57
2022/11/09 00:04:02;;;;;;;4.07;2.20;;;;;;;7.57;100.00;96419.91;5056322;28;20738;-57
2022/11/09 00:06:30;;;;;;;2.00;1.90;;;;;;;7.50;100.00;96420.44;5069091;28;20255;-57
2022/11/09 00:08:56;;;;;;;2.33;2.13;;;;;;;7.49;100.00;96420.56;5059080;28;20211;-57
2022/11/09 00:11:25;;;;;;;2.10;2.00;;;;;;;7.47;100.00;96430.38;5056319;28;20294;-57
2022/11/09 00:13:53;;;;;;;2.70;2.20;;;;;;;7.49;100.00;96420.56;5056245;28;20710;-57
2022/11/09 00:16:21;;;;;;;2.37;1.70;;;;;;;7.45;100.00;96427.03;5069453;28;20261;-56
2022/11/09 00:18:48;;;;;;;2.37;2.17;;;;;;;7.43;100.00;96421.09;5067897;28;20239;-56
2022/11/09 00:21:16;;;;;;;2.30;2.10;;;;;;;7.44;100.00;96415.69;5059654;28;20699;-55
2022/11/09 00:23:44;;;;;;;2.00;1.90;;;;;;;7.40;100.00;96414.25;5054152;28;20272;-56
2022/11/09 00:26:12;;;;;;;2.93;1.87;;;;;;;7.37;100.00;96411.06;5054687;28;20616;-55
2022/11/09 00:28:39;;;;;;;2.10;2.00;;;;;;;7.42;100.00;96422.88;5054770;28;20302;-57
2022/11/09 00:31:08;;;;;;;2.40;1.80;;;;;;;7.42;100.00;96412.34;5053661;28;20290;-57
2022/11/09 00:33:38;;;;;;;2.83;1.97;;;;;;;7.45;100.00;96411.25;5053973;28;20282;-56
2022/11/09 00:36:07;;;;;;;2.93;2.47;;;;;;;7.45;100.00;96413.88;5053961;28;20277;-56
2022/11/09 00:38:34;;;;;;;3.30;2.20;;;;;;;7.48;100.00;96411.81;5054499;28;20203;-58
2022/11/09 00:41:01;;;;;;;2.20;2.10;;;;;;;7.53;100.00;96403.56;5060188;28;20260;-55
2022/11/09 00:43:28;;;;;;;3.17;2.13;;;;;;;7.54;100.00;96401.75;5058078;28;20558;-55
2022/11/09 00:45:54;;;;;;;2.20;2.00;;;;;;;7.54;100.00;96386.81;5057542;28;20298;-56
2022/11/09 00:48:22;;;;;;;4.17;2.43;;;;;;;7.60;100.00;96394.19;5057892;28;20294;-55
2022/11/09 00:50:50;;;;;;;2.10;2.00;;;;;;;7.64;100.00;96397.38;5057232;28;20242;-57
2022/11/09 00:53:17;;;;;;;2.80;2.60;;;;;;;7.63;100.00;96395.69;5057720;28;20293;-57
2022/11/09 00:55:44;;;;;;;3.33;2.40;;;;;;;7.60;100.00;96399.44;5057603;28;20668;-56
2022/11/09 00:58:11;;;;;;;2.60;2.40;;;;;;;7.64;100.00;96411.38;5057106;28;20254;-56
2022/11/09 01:00:39;;;;;;;2.17;2.03;;;;;;;7.56;100.00;96407.72;5057344;28;20211;-57
2022/11/09 01:03:05;;;;;;;2.53;2.33;;;;;;;7.55;100.00;96425.28;5057533;28;20258;-56
2022/11/09 01:05:33;;;;;;;3.27;2.30;;;;;;;7.48;100.00;96419.72;5057932;28;20266;-56
2022/11/09 01:08:03;;;;;;;2.97;1.93;;;;;;;7.49;100.00;96420.56;5057168;28;20239;-56
2022/11/09 01:10:30;;;;;;;3.27;2.10;;;;;;;7.47;100.00;96425.13;5070494;28;20294;-56
2022/11/09 01:12:57;;;;;;;2.73;2.17;;;;;;;7.50;100.00;96427.50;5058023;28;20690;-56
2022/11/09 01:15:24;;;;;;;2.23;2.10;;;;;;;7.50;100.00;96425.72;5058014;28;20259;-56
2022/11/09 01:17:51;;;;;;;2.63;2.23;;;;;;;7.48;100.00;96416.25;5060812;28;20253;-56
2022/11/09 01:20:18;;;;;;;3.50;2.77;;;;;;;7.46;100.00;96420.81;5078460;28;20210;-57
2022/11/09 01:22:47;;;;;;;3.40;2.73;;;;;;;7.41;100.00;96423.00;5080516;28;20187;-57
2022/11/09 01:25:14;;;;;;;2.60;2.40;;;;;;;7.34;100.00;96422.69;5099061;28;20209;-56
2022/11/09 01:27:42;;;;;;;3.30;2.50;;;;;;;7.31;100.00;96430.00;5064700;28;20222;-56
2022/11/09 01:30:09;;;;;;;2.77;2.50;;;;;;;7.35;100.00;96420.88;5062855;28;20285;-56
2022/11/09 01:32:38;;;;;;;3.70;2.77;;;;;;;7.43;100.00;96421.09;5063494;28;20250;-57
2022/11/09 01:35:05;;;;;;;3.83;3.00;;;;;;;7.46;100.00;96420.81;5057041;28;20226;-56
2022/11/09 01:37:32;;;;;;;3.33;2.73;;;;;;;7.44;100.00;96412.22;5056396;28;20800;-56
2022/11/09 01:40:00;;;;;;;3.87;2.80;;;;;;;7.49;100.00;96407.41;5057236;28;20285;-56
2022/11/09 01:42:27;;;;;;;2.93;2.73;;;;;;;7.49;100.00;96415.28;5059439;28;20238;-54
2022/11/09 01:45:29;;;;;;;4.67;2.83;;;;;;;7.54;100.00;96410.50;5057301;28;20298;-57
2022/11/09 01:48:01;;;;;;;3.17;2.93;;;;;;;7.60;100.00;96415.22;5086785;28;20190;-56
2022/11/09 01:50:33;;;;;;;3.27;2.97;;;;;;;7.66;100.00;96421.75;5092199;28;20209;-57
2022/11/09 01:53:01;;;;;;;3.67;3.10;;;;;;;7.69;100.00;96421.47;5096861;28;20202;-57
2022/11/09 01:55:30;;;;;;;4.10;2.73;;;;;;;7.73;100.00;96426.38;5072770;28;20625;-56
2022/11/09 01:58:02;;;;;;;5.17;3.40;;;;;;;7.82;100.00;96422.97;5081668;28;20234;-57
2022/11/09 02:00:29;;;;;;;4.33;3.40;;;;;;;7.91;100.00;96419.53;5064312;28;20207;-57
2022/11/09 02:02:58;;;;;;;3.40;3.10;;;;;;;8.00;100.00;96410.84;5067064;28;20298;-57
2022/11/09 02:05:28;;;;;;;3.10;2.87;;;;;;;8.04;100.00;96410.59;5056238;28;20607;-57
2022/11/09 02:07:56;;;;;;;3.50;3.07;;;;;;;8.08;100.00;96411.97;5055482;28;20302;-56
2022/11/09 02:10:27;;;;;;;3.50;3.20;;;;;;;8.12;100.00;96405.47;5056224;28;20214;-57
2022/11/09 02:12:56;;;;;;;3.33;2.93;;;;;;;8.17;100.00;96405.91;5057014;28;20244;-56
2022/11/09 02:15:23;;;;;;;3.40;3.03;;;;;;;8.21;100.00;96402.03;5060389;28;20230;-56
2022/11/09 02:17:53;;;;;;;3.47;3.07;;;;;;;8.22;100.00;96401.88;5076410;28;20294;-57
2022/11/09 02:20:22;;;;;;;4.00;3.00;;;;;;;8.23;100.00;96400.94;5057186;28;20525;-56
2022/11/09 02:22:49;;;;;;;3.50;3.20;;;;;;;8.28;100.00;96404.03;5061828;28;20235;-56
2022/11/09 02:25:16;;;;;;;4.83;3.27;;;;;;;8.30;100.00;96401.25;5055329;28;20239;-57
2022/11/09 02:27:45;;;;;;;3.37;3.17;;;;;;;8.35;100.00;96399.91;5056461;28;20252;-56
2022/11/09 02:30:13;;;;;;;3.43;3.20;;;;;;;8.39;100.00;96395.19;5054559;28;20289;-56
2022/11/09 02:32:40;;;;;;;3.10;2.80;;;;;;;8.43;100.00;96393.94;5055565;28;20703;-57
2022/11/09 02:35:07;;;;;;;4.97;3.23;;;;;;;8.47;100.00;96401.44;5056286;28;20269;-56
2022/11/09 02:37:38;;;;;;;3.70;3.40;;;;;;;8.53;100.00;96413.25;5055340;28;20276;-57
2022/11/09 02:40:10;;;;;;;3.23;2.90;;;;;;;8.52;100.00;96411.56;5063002;28;20268;-55
2022/11/09 02:42:36;;;;;;;4.37;2.90;;;;;;;8.53;100.00;96401.88;5060613;28;20663;-56
2022/11/09 02:45:03;;;;;;;3.43;2.80;;;;;;;8.56;100.00;96391.88;5055892;28;20286;-57
2022/11/09 02:47:30;;;;;;;3.20;2.90;;;;;;;8.56;100.00;96397.16;5058369;28;20234;-57
2022/11/09 02:49:57;;;;;;;4.73;3.23;;;;;;;8.57;100.00;96398.84;5068747;28;20654;-56
2022/11/09 02:52:24;;;;;;;3.10;2.90;;;;;;;8.57;100.00;96403.25;5055721;28;20382;-56
2022/11/09 02:54:59;;;;;;;3.20;2.90;;;;;;;8.57;100.00;96404.09;5066775;28;20631;-55
2022/11/09 02:57:26;;;;;;;3.30;3.07;;;;;;;8.56;100.00;96402.44;5079278;28;20309;-57
2022/11/09 02:59:53;;;;;;;4.37;3.13;;;;;;;8.57;100.00;96398.84;5075022;28;20679;-56
2022/11/09 03:02:19;;;;;;;2.70;2.50;;;;;;;8.61;100.00;96389.66;5091138;28;20197;-57
2022/11/09 03:04:46;;;;;;;3.27;2.97;;;;;;;8.58;100.00;96392.56;5093746;28;20198;-57
2022/11/09 03:07:13;;;;;;;4.43;3.23;;;;;;;8.55;100.00;96398.13;5086791;28;20203;-58
2022/11/09 03:09:40;;;;;;;4.20;3.10;;;;;;;8.54;100.00;96395.63;5073157;28;20214;-57
2022/11/09 03:14:48;;;;;;;3.40;3.10;;;;;;;8.53;100.00;96405.34;5082315;28;20350;-59
2022/11/09 03:17:16;;;;;;;3.67;3.37;;;;;;;8.57;100.00;96400.63;5093522;28;20202;-57
2022/11/09 03:19:44;;;;;;;4.40;3.40;;;;;;;8.58;100.00;96402.28;5094039;28;20194;-57
2022/11/09 03:22:11;;;;;;;5.20;3.23;;;;;;;8.57;100.00;96409.38;5054187;28;20298;-57
2022/11/09 03:24:37;;;;;;;3.33;3.10;;;;;;;8.54;100.00;96408.81;5054841;28;20284;-57
2022/11/09 03:27:04;;;;;;;3.60;3.30;;;;;;;8.58;100.00;96405.75;5055098;28;20286;-56
2022/11/09 03:29:33;;;;;;;4.97;3.40;;;;;;;8.64;100.00;96417.56;5055308;28;20286;-56
2022/11/09 03:32:01;;;;;;;3.87;3.30;;;;;;;8.62;100.00;96415.06;5053895;28;20683;-57
2022/11/09 03:34:28;;;;;;;3.90;3.30;;;;;;;8.63;100.00;96419.34;5054674;28;20210;-56
2022/11/09 03:36:58;;;;;;;4.10;3.70;;;;;;;8.63;100.00;96421.16;5054628;28;20368;-55
2022/11/09 03:39:24;;;;;;;3.50;3.20;;;;;;;8.68;100.00;96430.31;5054303;28;20552;-57
2022/11/09 03:41:51;;;;;;;4.00;3.57;;;;;;;8.71;100.00;96437.13;5057997;28;20289;-56
2022/11/09 03:44:18;;;;;;;3.80;3.50;;;;;;;8.72;100.00;96431.72;5054554;28;20234;-57
2022/11/09 03:46:49;;;;;;;6.03;3.40;;;;;;;8.74;100.00;96440.34;5054489;28;20214;-55
2022/11/09 03:49:15;;;;;;;3.80;3.40;;;;;;;8.74;100.00;96442.97;5054777;28;20203;-56
2022/11/09 03:51:42;;;;;;;3.40;3.10;;;;;;;8.77;100.00;96447.13;5054473;28;20297;-55
2022/11/09 03:54:09;;;;;;;3.43;2.77;;;;;;;8.75;100.00;96447.25;5054318;28;20294;-56
2022/11/09 03:56:38;;;;;;;2.33;2.23;;;;;;;8.78;100.00;96454.91;5054569;28;20241;-56
2022/11/09 03:59:05;;;;;;;3.33;2.83;;;;;;;8.81;100.00;96454.63;5054732;28;20338;-56
2022/11/09 04:01:34;;;;;;;2.60;2.40;;;;;;;8.83;100.00;96460.59;5054467;28;20298;-56
2022/11/09 04:04:04;;;;;;;3.37;2.60;;;;;;;8.84;100.00;96459.63;5054593;28;20270;-56
2022/11/09 04:06:31;;;;;;;3.07;2.70;;;;;;;8.84;100.00;96467.53;5054753;28;20290;-56
2022/11/09 04:08:58;;;;;;;2.80;2.50;;;;;;;8.88;100.00;96476.84;5054207;28;20568;-56
2022/11/09 04:11:24;;;;;;;2.47;2.30;;;;;;;8.89;100.00;96480.31;5055506;28;20290;-57
2022/11/09 04:13:51;;;;;;;2.90;2.50;;;;;;;8.87;100.00;96482.25;5055487;28;20368;-55
2022/11/09 04:16:18;;;;;;;3.30;3.00;;;;;;;8.90;100.00;96482.81;5058041;28;20310;-55
2022/11/09 04:18:46;;;;;;;3.40;3.10;;;;;;;8.93;100.00;96485.16;5062968;28;20231;-56
2022/11/09 04:21:14;;;;;;;3.47;2.93;;;;;;;8.94;100.00;96491.28;5075768;28;20197;-57
2022/11/09 04:23:41;;;;;;;3.10;2.90;;;;;;;8.96;100.00;96492.81;5068331;28;20237;-57
2022/11/09 04:26:07;;;;;;;3.97;3.67;;;;;;;8.94;100.00;96492.13;5065956;28;20203;-57
2022/11/09 04:28:35;;;;;;;4.33;2.77;;;;;;;8.93;100.00;96479.88;5061694;28;20218;-57
2022/11/09 04:31:02;;;;;;;3.50;3.20;;;;;;;8.94;100.00;96486.84;5070569;28;20612;-57
2022/11/09 04:33:29;;;;;;;3.83;3.53;;;;;;;8.92;100.00;96482.69;5065244;28;20210;-55
2022/11/09 04:35:55;;;;;;;3.87;3.50;;;;;;;8.90;100.00;96485.44;5066471;28;20246;-57
2022/11/09 04:38:25;;;;;;;3.27;2.80;;;;;;;8.96;100.00;96484.88;5071942;28;20294;-56
2022/11/09 04:40:52;;;;;;;3.53;3.23;;;;;;;8.94;100.00;96486.84;5072740;28;20202;-58
2022/11/09 04:43:19;;;;;;;3.93;3.63;;;;;;;8.93;100.00;96492.25;5059571;28;20214;-56
2022/11/09 04:45:46;;;;;;;3.70;3.27;;;;;;;8.91;100.00;96488.91;5061254;28;20249;-56
2022/11/09 04:48:14;;;;;;;3.50;3.20;;;;;;;8.90;100.00;96489.88;5059513;28;20203;-56
2022/11/09 04:50:42;;;;;;;3.60;3.30;;;;;;;8.92;100.00;96491.44;5057878;28;20302;-57
2022/11/09 04:53:11;;;;;;;3.90;3.50;;;;;;;8.96;100.00;96492.00;5057563;28;20297;-57
2022/11/09 04:55:40;;;;;;;4.67;3.70;;;;;;;8.93;100.00;96501.00;5056582;28;20270;-57
2022/11/09 04:58:07;;;;;;;3.80;3.50;;;;;;;8.92;100.00;96501.97;5056520;28;20294;-57
2022/11/09 05:00:35;;;;;;;4.00;3.67;;;;;;;8.93;100.00;96508.91;5056681;28;20291;-56
2022/11/09 05:03:04;;;;;;;4.33;3.10;;;;;;;8.93;100.00;96501.00;5057655;28;20285;-56
2022/11/09 05:05:35;;;;;;;4.67;3.20;;;;;;;8.90;100.00;96503.91;5057609;28;20203;-55
2022/11/09 05:08:04;;;;;;;5.00;3.67;;;;;;;8.94;100.00;96502.66;5057785;28;20199;-56
2022/11/09 05:10:30;;;;;;;3.60;3.30;;;;;;;8.93;100.00;96495.72;5059022;28;20642;-56
2022/11/09 05:13:02;;;;;;;3.90;3.60;;;;;;;8.92;100.00;96495.88;5057425;28;20235;-56
2022/11/09 05:15:29;;;;;;;6.70;3.50;;;;;;;8.91;100.00;96491.56;5057475;28;20230;-56
2022/11/09 05:17:57;;;;;;;4.20;3.57;;;;;;;8.92;100.00;96504.63;5065958;28;20289;-56
2022/11/09 05:20:24;;;;;;;3.90;3.50;;;;;;;8.89;100.00;96512.78;5057422;28;20302;-57
2022/11/09 05:25:35;;;;;;;5.77;3.90;;;;;;;8.88;100.00;96508.50;5056755;28;20639;-57
2022/11/09 05:28:04;;;;;;;5.40;4.10;;;;;;;8.89;100.00;96510.13;5056428;28;20232;-56
2022/11/09 05:30:30;;;;;;;3.60;3.30;;;;;;;8.92;100.00;96512.53;5066195;28;20293;-55
2022/11/09 05:32:59;;;;;;;3.70;3.40;;;;;;;8.91;100.00;96517.94;5063283;28;20263;-57
2022/11/09 05:35:26;;;;;;;4.17;3.83;;;;;;;8.89;100.00;96525.16;5061004;28;20296;-56
2022/11/09 05:37:52;;;;;;;5.77;3.80;;;;;;;8.90;100.00;96532.91;5058724;28;20310;-56
2022/11/09 05:40:21;;;;;;;5.13;3.87;;;;;;;8.89;100.00;96525.97;5056382;28;20302;-55
2022/11/09 05:42:49;;;;;;;4.67;4.00;;;;;;;8.94;100.00;96536.09;5060651;28;20237;-56
2022/11/09 05:45:18;;;;;;;5.53;4.13;;;;;;;8.94;100.00;96541.38;5056268;28;20298;-57
2022/11/09 05:47:46;;;;;;;4.23;3.83;;;;;;;8.95;100.00;96543.91;5056354;28;20675;-56
2022/11/09 05:50:16;;;;;;;5.13;3.83;;;;;;;8.96;100.00;96542.09;5056109;28;20257;-57
2022/11/09 05:52:43;;;;;;;4.00;3.53;;;;;;;8.99;100.00;96550.56;5059283;28;20286;-57
2022/11/09 05:55:10;;;;;;;4.63;4.10;;;;;;;9.00;100.00;96554.84;5066034;28;20249;-58
2022/11/09 05:57:36;;;;;;;4.27;3.87;;;;;;;9.02;100.00;96556.53;5056622;28;20309;-57
2022/11/09 06:00:06;;;;;;;4.17;3.73;;;;;;;9.05;100.00;96561.53;5056006;28;20703;-57
2022/11/09 06:02:34;;;;;;;3.73;3.30;;;;;;;9.04;100.00;96557.22;5056303;28;20264;-57
2022/11/09 06:05:01;;;;;;;4.60;4.20;;;;;;;9.08;100.00;96561.25;5062552;28;20203;-57
2022/11/09 06:07:28;;;;;;;4.07;3.67;;;;;;;9.08;100.00;96561.25;5062472;28;20290;-59
2022/11/09 06:09:54;;;;;;;4.10;3.70;;;;;;;9.12;100.00;96563.50;5067277;28;20203;-59
2022/11/09 06:12:21;;;;;;;4.23;3.80;;;;;;;9.21;100.00;96567.13;5064739;28;20233;-56
2022/11/09 06:14:48;;;;;;;4.67;2.87;;;;;;;9.36;100.00;96571.03;5069265;28;20731;-57
2022/11/09 06:17:14;;;;;;;3.20;2.90;;;;;;;9.53;100.00;96570.34;5055522;28;20327;-56
2022/11/09 06:19:42;;;;;;;4.03;3.17;;;;;;;9.73;100.00;96561.47;5055887;28;20213;-61
2022/11/09 06:22:09;;;;;;;2.63;2.43;;;;;;;9.98;100.00;96563.53;5055056;28;20235;-58
2022/11/09 06:24:36;;;;;;;2.93;2.50;;;;;;;10.31;100.00;96558.75;5054802;28;20656;-57
2022/11/09 06:27:03;;;;;;;3.40;2.80;;;;;;;10.57;100.00;96577.44;5055225;28;20332;-57
2022/11/09 06:29:29;;;;;;;4.00;3.00;;;;;;;10.84;100.00;96573.03;5054840;28;20652;-58
2022/11/09 06:31:56;;;;;;;3.53;2.77;;;;;;;11.06;100.00;96570.97;5054658;28;20330;-56
2022/11/09 06:34:22;;;;;;;3.23;2.90;;;;;;;11.17;100.00;96568.97;5055058;28;20245;-57
2022/11/09 06:36:51;;;;;;;2.60;2.40;;;;;;;11.26;100.00;96576.03;5054018;28;20257;-57
2022/11/09 06:39:18;;;;;;;2.90;2.63;;;;;;;11.24;100.00;96569.19;5053469;28;20253;-55
2022/11/09 06:41:45;;;;;;;2.87;2.67;;;;;;;11.25;100.00;96568.22;5057343;28;20207;-57
2022/11/09 06:44:12;;;;;;;2.90;2.50;;;;;;;11.22;100.00;96564.06;5056040;28;20294;-57
2022/11/09 06:46:39;;;;;;;3.80;2.70;;;;;;;11.26;100.00;96554.00;5057359;28;20284;-56
2022/11/09 06:49:06;;;;;;;2.47;2.10;;;;;;;11.26;100.00;96559.31;5056248;28;20234;-56
2022/11/09 06:51:33;;;;;;;8.30;5.70;;;;;;;11.27;100.00;96569.72;5055223;28;20295;-55
2022/11/09 06:54:01;;;;;;;8.80;8.00;;;;;;;11.29;100.00;96583.66;5055545;28;20207;-56
2022/11/09 06:56:28;;;;;;;2.80;2.50;;;;;;;11.30;100.00;96580.00;5056545;28;20322;-57
2022/11/09 06:58:54;;;;;;;3.90;2.10;;;;;;;11.39;100.00;96588.88;5061050;28;20291;-56
2022/11/09 07:01:26;;;;;;;2.20;2.10;;;;;;;11.38;100.00;96584.56;5065633;28;20294;-57
2022/11/09 07:03:53;;;;;;;2.30;2.10;;;;;;;11.40;100.00;96586.09;5071311;28;20803;-57
2022/11/09 07:06:20;;;;;;;2.33;2.10;;;;;;;11.48;100.00;96582.69;5074913;28;20278;-57
2022/11/09 07:08:46;;;;;;;1.90;1.70;;;;;;;11.52;100.00;96576.09;5054543;28;20293;-55
2022/11/09 07:11:16;;;;;;;3.30;2.67;;;;;;;11.52;100.00;96594.66;5054261;28;20241;-54
2022/11/09 07:13:42;;;;;;;5.33;4.83;;;;;;;11.54;100.00;96587.41;5055692;28;20199;-57
2022/11/09 07:16:10;;;;;;;4.33;2.83;;;;;;;11.54;100.00;96590.06;5055530;28;20290;-56
2022/11/09 07:18:37;;;;;;;1.90;1.73;;;;;;;11.55;100.00;96578.44;5073264;28;20214;-56
2022/11/09 07:21:05;;;;;;;2.97;1.87;;;;;;;11.56;100.00;96580.13;5073778;28;20289;-57
2022/11/09 07:23:32;;;;;;;1.93;1.63;;;;;;;11.58;100.00;96583.47;5074326;28;20591;-57
2022/11/09 07:26:00;;;;;;;1.77;1.67;;;;;;;11.57;100.00;96584.44;5062926;28;20233;-56
2022/11/09 07:28:28;;;;;;;1.30;1.20;;;;;;;11.59;100.00;96590.41;5055260;28;20273;-57
2022/11/09 07:30:59;;;;;;;1.63;1.53;;;;;;;11.61;100.00;96601.72;5054538;28;20289;-57
2022/11/09 07:33:29;;;;;;;1.73;1.63;;;;;;;11.59;100.00;96603.66;5061243;28;20210;-56
2022/11/09 07:35:57;;;;;;;1.27;1.27;;;;;;;11.60;100.00;96612.44;5074645;28;20547;-57
2022/11/09 07:38:24;;;;;;;1.80;1.60;;;;;;;11.60;100.00;96617.72;5074914;28;20258;-57
2022/11/09 07:40:51;;;;;;;2.67;1.77;;;;;;;11.57;100.00;96618.88;5061777;28;20233;-58
2022/11/09 07:43:20;;;;;;;1.97;1.87;;;;;;;11.58;100.00;96615.25;5055249;28;20231;-57
2022/11/09 07:45:48;;;;;;;1.70;1.60;;;;;;;11.57;100.00;96624.16;5053615;28;20235;-57
2022/11/09 07:48:15;;;;;;;1.90;1.80;;;;;;;11.58;100.00;96620.56;5073166;28;20208;-56
2022/11/09 07:50:42;;;;;;;12.03;10.43;;;;;;;11.57;100.00;96608.28;5078230;28;20310;-56
2022/11/09 07:53:11;;;;;;;7.93;6.83;;;;;;;11.60;100.00;96607.16;5068279;28;20290;-56
2022/11/09 07:55:37;;;;;;;4.80;3.93;;;;;;;11.60;100.00;96607.97;5074474;28;20285;-56
2022/11/09 07:58:06;;;;;;;1.93;1.70;;;;;;;11.62;100.00;96603.34;5082074;28;20317;-57
2022/11/09 08:00:34;;;;;;;1.73;1.63;;;;;;;11.62;100.00;96599.91;5070200;28;20240;-57
2022/11/09 08:03:02;;;;;;;1.77;1.37;;;;;;;11.64;100.00;96598.75;5072774;28;20246;-58
2022/11/09 08:05:29;;;;;;;2.40;2.20;;;;;;;11.65;100.00;96603.06;5083473;28;20210;-58
2022/11/09 08:07:57;;;;;;;3.90;3.50;;;;;;;11.65;100.00;96611.03;5066253;28;20199;-57
2022/11/09 08:10:24;;;;;;;4.37;3.40;;;;;;;11.68;100.00;96610.72;5061585;28;20278;-56
2022/11/09 08:12:55;;;;;;;3.07;2.70;;;;;;;11.74;100.00;96626.03;5066138;28;20289;-57
2022/11/09 08:15:25;;;;;;;3.67;2.80;;;;;;;11.79;100.00;96629.06;5058893;28;20282;-56
2022/11/09 08:17:52;;;;;;;3.73;2.50;;;;;;;11.85;100.00;96628.47;5058041;28;20215;-57
2022/11/09 08:20:21;;;;;;;3.23;2.63;;;;;;;11.89;100.00;96624.53;5062967;28;20298;-57
2022/11/09 08:22:48;;;;;;;2.47;2.20;;;;;;;11.94;100.00;96635.50;5065531;28;20238;-57
2022/11/09 08:25:14;;;;;;;2.17;2.00;;;;;;;11.98;100.00;96623.59;5064022;28;20569;-56
2022/11/09 08:27:41;;;;;;;2.60;2.40;;;;;;;12.07;100.00;96634.28;5065723;28;20287;-57
2022/11/09 08:30:12;;;;;;;4.00;2.20;;;;;;;12.09;100.00;96621.69;5076908;28;20210;-57
2022/11/09 08:32:39;;;;;;;1.90;1.80;;;;;;;12.04;100.00;96630.13;5065098;28;20235;-56
2022/11/09 08:35:08;;;;;;;5.17;2.10;;;;;;;12.03;100.00;96624.97;5058700;28;20245;-56
2022/11/09 08:37:37;;;;;;;5.70;2.63;;;;;;;11.95;100.00;96629.22;5058809;28;20241;-57
2022/11/09 08:40:06;;;;;;;4.30;2.27;;;;;;;11.97;100.00;96623.78;5073729;28;20198;-56
2022/11/09 08:42:34;;;;;;;3.40;2.73;;;;;;;11.97;100.00;96621.94;5064476;28;20298;-57
2022/11/09 08:45:00;;;;;;;3.63;2.40;;;;;;;11.95;100.00;96623.91;5071444;28;20607;-57
2022/11/09 08:47:28;;;;;;;3.03;2.60;;;;;;;11.90;100.00;96620.88;5058823;28;20237;-57
2022/11/09 08:49:55;;;;;;;2.67;2.47;;;;;;;11.90;100.00;96618.22;5077081;28;20617;-56
2022/11/09 08:52:21;;;;;;;2.43;2.23;;;;;;;11.90;100.00;96610.28;5075938;28;20404;-56
2022/11/09 08:54:49;;;;;;;4.27;2.87;;;;;;;11.90;100.00;96606.81;5068624;28;20207;-57
2022/11/09 08:57:17;;;;;;;2.90;2.70;;;;;;;11.90;100.00;96601.53;5072182;28;20218;-57
2022/11/09 08:59:44;;;;;;;3.00;2.73;;;;;;;11.91;100.00;96605.81;5076605;28;20293;-56
2022/11/09 09:02:11;;;;;;;2.83;2.57;;;;;;;11.92;100.00;96592.44;5073567;28;20302;-57
2022/11/09 09:04:38;;;;;;;3.20;2.90;;;;;;;11.91;100.00;96601.34;5067321;28;20301;-57
2022/11/09 09:07:04;;;;;;;3.00;2.80;;;;;;;11.93;100.00;96587.97;5071096;28;20301;-57
2022/11/09 09:09:31;;;;;;;2.97;2.77;;;;;;;11.97;100.00;96584.84;5057755;28;20203;-57
2022/11/09 09:11:59;;;;;;;3.43;3.13;;;;;;;12.01;100.00;96579.25;5056528;28;20658;-57
2022/11/09 09:14:26;;;;;;;3.97;3.40;;;;;;;12.04;100.00;96589.53;5057385;28;20246;-55
2022/11/09 09:16:53;;;;;;;3.03;2.80;;;;;;;12.04;100.00;96589.53;5057111;28;22171;-57
2022/11/09 09:19:19;;;;;;;3.50;3.10;;;;;;;12.08;100.00;96580.31;5057012;28;20715;-56
2022/11/09 09:21:47;;;;;;;3.50;3.20;;;;;;;12.12;100.00;96576.31;5058269;28;20227;-57
2022/11/09 09:24:14;;;;;;;3.60;3.30;;;;;;;12.19;100.00;96582.69;5060909;28;20246;-57
2022/11/09 09:26:41;;;;;;;4.27;3.67;;;;;;;12.23;100.00;96584.88;5075727;28;20619;-57
2022/11/09 09:29:13;;;;;;;4.37;3.30;;;;;;;12.29;100.00;96591.41;5077343;28;20290;-56
2022/11/09 09:31:40;;;;;;;3.27;2.97;;;;;;;12.30;100.00;96585.94;5076545;28;20337;-57
2022/11/09 09:34:06;;;;;;;4.97;4.57;;;;;;;12.29;100.00;96578.94;5075955;28;20278;-56
2022/11/09 09:36:34;;;;;;;5.00;3.80;;;;;;;12.30;100.00;96579.78;5076736;28;20690;-57
2022/11/09 09:39:01;;;;;;;6.83;4.40;;;;;;;12.30;100.00;96585.09;5076770;28;20233;-56
2022/11/09 09:41:34;;;;;;;4.80;3.67;;;;;;;12.30;100.00;96595.69;5070682;28;20601;-57
2022/11/09 09:44:18;;;;;;;3.83;3.53;;;;;;;12.31;100.00;96600.03;5059333;28;20235;-57
2022/11/09 09:46:49;;;;;;;3.73;3.40;;;;;;;12.32;100.00;96601.69;5065877;28;20697;-57
2022/11/09 09:49:19;;;;;;;4.50;3.60;;;;;;;12.33;100.00;96600.69;5072977;28;20298;-57
2022/11/09 09:51:51;;;;;;;4.50;3.90;;;;;;;12.35;100.00;96604.03;5066311;28;20222;-58
2022/11/09 09:54:20;;;;;;;4.40;3.87;;;;;;;12.27;100.00;96603.97;5058155;28;20282;-57
2022/11/09 09:56:49;;;;;;;5.03;3.67;;;;;;;12.27;100.00;96599.50;5067405;28;20281;-56
2022/11/09 09:59:23;;;;;;;4.87;3.60;;;;;;;12.27;100.00;96596.00;5071471;28;20238;-57
2022/11/09 10:01:50;;;;;;;3.67;3.37;;;;;;;12.32;100.00;96597.22;5056506;28;20290;-57
2022/11/09 10:04:19;;;;;;;4.27;3.40;;;;;;;12.35;100.00;96611.97;5055930;28;20207;-57
2022/11/09 10:06:58;;;;;;;3.40;3.10;;;;;;;12.38;100.00;96604.56;5059541;28;20651;-57
2022/11/09 10:09:34;;;;;;;4.57;3.40;;;;;;;12.43;100.00;96601.44;5055582;28;20210;-56
2022/11/09 10:12:05;;;;;;;3.57;3.27;;;;;;;12.44;100.00;96601.28;5054849;28;20241;-56
2022/11/09 10:14:53;;;;;;;3.00;2.70;;;;;;;12.47;100.00;96598.31;5067231;28;20241;-57
2022/11/09 10:17:25;;;;;;;3.60;2.87;;;;;;;12.55;100.00;96609.94;5066757;28;20226;-57
2022/11/09 10:20:01;;;;;;;6.07;3.70;;;;;;;12.59;100.00;96606.84;5070674;28;20293;-57
2022/11/09 10:22:36;;;;;;;5.33;3.50;;;;;;;12.60;100.00;96605.03;5075876;28;20288;-56
2022/11/09 10:25:07;;;;;;;3.27;3.00;;;;;;;12.60;100.00;96595.25;5077018;28;20298;-56
2022/11/09 10:27:35;;;;;;;4.43;3.10;;;;;;;12.60;100.00;96592.59;5066157;28;20207;-57
2022/11/09 10:30:08;;;;;;;3.97;3.47;;;;;;;12.61;100.00;96588.94;5056567;28;20268;-55
2022/11/09 10:32:37;;;;;;;5.53;3.70;;;;;;;12.54;100.00;96593.19;5056203;28;20782;-57
2022/11/09 10:35:14;;;;;;;4.83;3.53;;;;;;;12.56;100.00;96604.50;5057151;28;20294;-57
2022/11/09 10:37:43;;;;;;;4.60;3.53;;;;;;;12.53;100.00;96596.88;5070223;28;20256;-57
2022/11/09 10:40:17;;;;;;;5.33;4.13;;;;;;;12.53;100.00;96596.88;5064570;28;20508;-56
2022/11/09 10:42:49;;;;;;;4.13;3.53;;;;;;;12.52;100.00;96597.00;5065668;28;20627;-57
2022/11/09 10:45:27;;;;;;;5.13;3.70;;;;;;;12.48;100.00;96593.84;5066247;28;20300;-57
2022/11/09 10:47:54;;;;;;;5.53;3.63;;;;;;;12.52;100.00;96583.75;5056000;28;20563;-57
2022/11/09 10:50:27;;;;;;;5.07;4.07;;;;;;;12.54;100.00;96585.25;5055595;28;20302;-57
2022/11/09 10:53:08;;;;;;;3.77;3.47;;;;;;;12.52;100.00;96579.28;5056364;28;20246;-56
2022/11/09 10:55:35;;;;;;;3.90;3.60;;;;;;;12.48;100.00;96575.28;5071692;28;20266;-56
2022/11/09 10:58:19;;;;;;;4.83;3.87;;;;;;;12.47;100.00;96570.94;5076920;28;20222;-56
2022/11/09 11:00:58;;;;;;;4.10;3.40;;;;;;;12.49;100.00;96574.28;5075612;28;20592;-57
2022/11/09 11:03:25;;;;;;;4.53;4.00;;;;;;;12.52;100.00;96563.38;5063163;28;20234;-57
2022/11/09 11:05:57;;;;;;;4.33;3.93;;;;;;;12.56;100.00;96554.09;5072874;28;20202;-56
2022/11/09 11:08:31;;;;;;;4.40;4.00;;;;;;;12.56;100.00;96563.88;5058867;28;20199;-56
2022/11/09 11:11:08;;;;;;;4.10;3.70;;;;;;;12.59;100.00;96555.59;5055609;28;20278;-55
2022/11/09 11:13:35;;;;;;;3.87;3.57;;;;;;;12.62;100.00;96566.72;5056212;28;20277;-57
2022/11/09 11:16:14;;;;;;;3.70;3.30;;;;;;;12.66;100.00;96560.13;5066761;28;20213;-56
2022/11/09 11:18:44;;;;;;;6.23;4.03;;;;;;;12.69;100.00;96541.22;5082790;28;20245;-56
2022/11/09 11:21:16;;;;;;;4.47;3.90;;;;;;;12.69;100.00;96538.59;5096968;28;20198;-56
2022/11/09 11:23:43;;;;;;;4.23;3.80;;;;;;;12.69;100.00;96533.28;5077686;28;20198;-57
2022/11/09 11:26:24;;;;;;;4.10;3.70;;;;;;;12.68;100.00;96521.00;5076728;28;20211;-57
2022/11/09 11:28:58;;;;;;;4.40;4.00;;;;;;;12.67;100.00;96519.34;5075847;28;20578;-58
2022/11/09 11:31:27;;;;;;;4.17;3.77;;;;;;;12.66;100.00;96520.34;5078450;28;20242;-61
2022/11/09 11:33:55;;;;;;;3.90;3.50;;;;;;;12.61;100.00;96519.97;5088064;28;20218;-56
2022/11/09 11:36:32;;;;;;;4.47;3.23;;;;;;;12.53;100.00;96521.75;5077201;28;20281;-57
2022/11/09 11:39:14;;;;;;;3.40;3.20;;;;;;;12.48;100.00;96519.56;5088582;28;20202;-58
2022/11/09 11:42:09;;;;;;;6.00;3.40;;;;;;;12.44;100.00;96510.25;5062048;28;20206;-57